European Causeway — C6RG7 — position and weather

sailwx.info

Track history (hours):
 
Tides and Currents Weather Stations Pressure Air Temp Water Temp Dewpoint Dewpoint Depression Visibility Wind Speed Wind Dir Waves Ship Positions

European Causeway

Operator: P & O Irish Sea

Last reported at 2015-Jan-27 16:33 UTC. Time now 2015-Jan-27 16:55 UTC.
Position N 54°58' W 005°02'.

Length 165 m; draft 5.5 m.

Type: Passenger vessel. MMSI: 311027000.

Date/timePositionNaut miles runAvg speedWind from/ knotsBaromVisibWave heightAir tempDewpointWater temp
2015-Jan-27 16:33N 54°58' W 005°02'1 0.7
2015-Jan-27 15:24N 54°58' W 005°01'1012.0
2015-Jan-27 14:33N 54°58' W 005°19'1818.3
2015-Jan-27 13:33N 54°51' W 005°48'0 0.1
2015-Jan-27 12:32N 54°51' W 005°48'1413.9
2015-Jan-27 11:32N 54°57' W 005°26'1414.2
2015-Jan-27 10:33N 54°59' W 005°02'1 0.8
2015-Jan-27 09:28N 54°58' W 005°02'1314.0
2015-Jan-27 08:33N 54°57' W 005°24'1515.2
2015-Jan-27 07:33N 54°51' W 005°48'0 0.0
2015-Jan-27 06:33N 54°51' W 005°48'7 7.2
2015-Jan-27 05:34N 54°55' W 005°37'2018.5
2015-Jan-27 04:29N 54°59' W 005°04'2 2.5
2015-Jan-27 03:33N 54°58' W 005°01'0 0.0
2015-Jan-27 02:33N 54°58' W 005°01'6 5.6
2015-Jan-27 01:33N 55°01' W 005°08'1817.9
2015-Jan-27 00:33N 54°54' W 005°36'7 7.3
2015-Jan-26 23:33N 54°51' W 005°48'0 0.0
2015-Jan-26 22:33N 54°51' W 005°48'4 4.5
2015-Jan-26 21:34N 54°53' W 005°41'2315.8
2015-Jan-26 20:06N 54°59' W 005°02'1 2.1
2015-Jan-26 19:34N 54°58' W 005°01'0 0.3
2015-Jan-26 18:27N 54°58' W 005°01'1314.2
2015-Jan-26 17:33N 54°57' W 005°23'1514.9
2015-Jan-26 16:31N 54°51' W 005°48'0 0.0
2015-Jan-26 15:32N 54°51' W 005°48'1313.6
2015-Jan-26 14:34N 54°57' W 005°27'1514.6
2015-Jan-26 13:33N 54°58' W 005°02'0 0.1
2015-Jan-26 12:17N 54°59' W 005°02'1013.0
2015-Jan-26 11:33N 54°58' W 005°19'1817.6
2015-Jan-26 10:31N 54°51' W 005°48'0 0.2
2015-Jan-26 09:33N 54°51' W 005°48'1414.4
2015-Jan-26 08:33N 54°58' W 005°26'1413.4
2015-Jan-26 07:30N 54°58' W 005°01'0 0.0
2015-Jan-26 06:33N 54°58' W 005°01'5 5.2
2015-Jan-26 05:31N 55°02' W 005°08'1818.9
2015-Jan-26 04:32N 54°54' W 005°37'7 7.2
2015-Jan-26 03:33N 54°51' W 005°48'0 0.0
2015-Jan-26 02:33N 54°51' W 005°48'0 0.0
2015-Jan-26 01:33N 54°51' W 005°48'5 5.2
2015-Jan-26 00:33N 54°54' W 005°40'1817.7
2015-Jan-25 23:33N 55°01' W 005°13'8 7.5
2015-Jan-25 22:34N 54°58' W 005°01'6 5.7
2015-Jan-25 21:33N 55°02' W 005°07'1917.8
2015-Jan-25 20:30N 54°54' W 005°37'7 7.4
2015-Jan-25 19:33N 54°51' W 005°48'0 0.0
2015-Jan-25 18:33N 54°51' W 005°48'1414.5
2015-Jan-25 17:33N 54°58' W 005°26'1411.1
2015-Jan-25 16:16N 54°58' W 005°01'0 0.0
2015-Jan-25 15:22N 54°58' W 005°01'6 7.0
2015-Jan-25 14:33N 55°02' W 005°08'1817.6
2015-Jan-25 13:33N 54°54' W 005°36'7 7.5
2015-Jan-25 12:33N 54°51' W 005°48'0 0.0
2015-Jan-25 11:33N 54°51' W 005°48'0 0.0
2015-Jan-25 10:33N 54°51' W 005°48'0 0.0
2015-Jan-25 09:32N 54°51' W 005°48'1616.3
2015-Jan-25 08:33N 54°58' W 005°23'1312.8
2015-Jan-25 07:33N 54°58' W 005°01'0 0.0
2015-Jan-25 06:33N 54°58' W 005°01'0 0.0
2015-Jan-25 05:33N 54°58' W 005°01'0 0.0
2015-Jan-25 04:33N 54°58' W 005°01'0 0.0
2015-Jan-25 03:34N 54°58' W 005°01'0 0.0
2015-Jan-25 02:33N 54°58' W 005°01'0 0.0
2015-Jan-25 01:31N 54°58' W 005°01'0 0.0
2015-Jan-25 00:33N 54°58' W 005°01'0 0.0
2015-Jan-24 23:33N 54°58' W 005°01'5 2.4
2015-Jan-24 21:26N 55°02' W 005°06'1517.6
2015-Jan-24 20:34N 54°55' W 005°30'1111.1
2015-Jan-24 19:33N 54°51' W 005°48'0 0.0
2015-Jan-24 18:33N 54°51' W 005°48'1312.9
2015-Jan-24 17:34N 54°57' W 005°29'1514.8
2015-Jan-24 16:32N 54°59' W 005°02'1 1.4
2015-Jan-24 15:31N 54°58' W 005°01'1111.1
2015-Jan-24 14:33N 54°59' W 005°20'1817.9
2015-Jan-24 13:33N 54°51' W 005°48'0 0.4
2015-Jan-24 12:34N 54°51' W 005°48'1414.3
2015-Jan-24 11:33N 54°58' W 005°26'1413.7
2015-Jan-24 10:33N 54°58' W 005°02'1 0.6
2015-Jan-24 09:32N 54°58' W 005°01'1212.3
2015-Jan-24 08:33N 54°57' W 005°22'1616.0
2015-Jan-24 07:33N 54°51' W 005°48'0 0.0
2015-Jan-24 06:33N 54°51' W 005°48'9 8.6
2015-Jan-24 05:33N 54°55' W 005°35'1917.8
2015-Jan-24 04:31N 54°60' W 005°04'2 2.5
2015-Jan-24 03:33N 54°58' W 005°01'0 0.0
2015-Jan-24 02:34N 54°58' W 005°01'6 5.3
2015-Jan-24 01:30N 55°02' W 005°08'1718.2
2015-Jan-24 00:33N 54°54' W 005°35'8 7.9
2015-Jan-23 23:33N 54°51' W 005°48'0 0.0
2015-Jan-23 22:33N 54°51' W 005°48'6 5.7
2015-Jan-23 21:33N 54°54' W 005°39'1717.3
2015-Jan-23 20:33N 55°01' W 005°12'7 3.5
2015-Jan-23 18:33N 54°58' W 005°01'1212.2
2015-Jan-23 17:32N 54°57' W 005°23'1614.9
2015-Jan-23 16:29N 54°51' W 005°48'0 0.0
2015-Jan-23 15:33N 54°51' W 005°48'1514.7
2015-Jan-23 14:34N 54°58' W 005°26'1414.0
2015-Jan-23 13:33N 54°58' W 005°01'0 0.1
2015-Jan-23 12:32N 54°58' W 005°01'1110.8
2015-Jan-23 11:33N 54°58' W 005°19'1818.0
2015-Jan-23 10:33N 54°51' W 005°48'0 0.2
2015-Jan-23 09:33N 54°51' W 005°48'1716.7
2015-Jan-23 08:33N 54°59' W 005°22'1211.7
2015-Jan-23 07:31N 54°58' W 005°01'0 0.0
2015-Jan-23 06:33N 54°58' W 005°01'5 5.2
2015-Jan-23 05:33N 55°02' W 005°06'1918.9
2015-Jan-23 04:33N 54°54' W 005°36'7 7.3
2015-Jan-23 03:33N 54°51' W 005°48'0 0.0
2015-Jan-23 02:33N 54°51' W 005°48'6 5.6
2015-Jan-23 01:33N 54°55' W 005°42'1818.0
2015-Jan-23 00:33N 55°01' W 005°12'7 7.3
2015-Jan-22 23:33N 54°58' W 005°01'0 0.0
2015-Jan-22 22:31N 54°58' W 005°01'6 5.8
2015-Jan-22 21:30N 55°01' W 005°09'1818.4
2015-Jan-22 20:31N 54°54' W 005°37'7 6.9
2015-Jan-22 19:33N 54°51' W 005°48'0 0.0
2015-Jan-22 18:33N 54°51' W 005°48'1312.7
2015-Jan-22 17:33N 54°57' W 005°29'1515.4
2015-Jan-22 16:34N 54°58' W 005°02'1 0.8
2015-Jan-22 15:27N 54°58' W 005°01'1112.7
2015-Jan-22 14:33N 54°58' W 005°21'1717.1
2015-Jan-22 13:33N 54°51' W 005°48'0 0.1
2015-Jan-22 12:30N 54°51' W 005°48'1313.5
2015-Jan-22 11:31N 54°58' W 005°28'1515.3
2015-Jan-22 10:33N 54°58' W 005°02'1 1.0
2015-Jan-22 09:32N 54°58' W 005°01'1110.9
2015-Jan-22 08:33N 54°58' W 005°20'1817.8
2015-Jan-22 07:33N 54°51' W 005°48'0 0.1
2015-Jan-22 06:33N 54°51' W 005°48'6 6.4
2015-Jan-22 05:33N 54°54' W 005°38'2118.7
2015-Jan-22 04:27N 54°60' W 005°04'3 2.8
2015-Jan-22 03:32N 54°58' W 005°01'0 0.0
2015-Jan-22 02:29N 54°58' W 005°01'6 6.5
2015-Jan-22 01:31N 55°01' W 005°10'1717.9
2015-Jan-22 00:33N 54°54' W 005°37'7 6.8
2015-Jan-21 23:33N 54°51' W 005°48'0 0.0
2015-Jan-21 22:50N 54°51' W 005°48'0 0.0
2015-Jan-21 22:46N 54°51' W 005°48'0 0.0
2015-Jan-21 22:33N 54°51' W 005°48'4 4.3
2015-Jan-21 21:33N 54°53' W 005°42'1918.7
2015-Jan-21 20:33N 55°02' W 005°13'8 7.0
2015-Jan-21 19:25N 54°58' W 005°01'0 0.0
2015-Jan-21 18:33N 54°58' W 005°01'1110.9
2015-Jan-21 17:33N 54°58' W 005°20'1717.5
2015-Jan-21 16:34N 54°51' W 005°48'0 0.1
2015-Jan-21 15:33N 54°51' W 005°48'1312.8
2015-Jan-21 14:33N 54°57' W 005°29'1515.3
2015-Jan-21 13:33N 54°58' W 005°02'1 0.8
2015-Jan-21 12:33N 54°58' W 005°01'1110.7
2015-Jan-21 11:34N 54°59' W 005°19'1817.9
2015-Jan-21 10:33N 54°51' W 005°48'0 0.3
2015-Jan-21 09:33N 54°51' W 005°48'1515.2
2015-Jan-21 08:33N 54°58' W 005°24'1313.4
2015-Jan-21 07:33N 54°58' W 005°01'0 0.0
2015-Jan-21 06:27N 54°58' W 005°01'5 5.6
2015-Jan-21 05:31N 55°02' W 005°07'1717.6
2015-Jan-21 04:33N 54°55' W 005°34'9 8.6
2015-Jan-21 03:33N 54°51' W 005°48'0 0.0
2015-Jan-21 02:33N 54°51' W 005°48'5 4.5
2015-Jan-21 01:34N 54°53' W 005°41'1918.6
2015-Jan-21 00:34N 55°01' W 005°12'7 7.2
2015-Jan-20 23:33N 54°58' W 005°01'6 2.9
2015-Jan-20 21:33N 55°01' W 005°09'1717.5
2015-Jan-20 20:34N 54°54' W 005°36'7 7.0
2015-Jan-20 19:30N 54°51' W 005°48'0 0.0
2015-Jan-20 18:33N 54°51' W 005°48'1616.3
2015-Jan-20 17:33N 54°59' W 005°23'1312.7
2015-Jan-20 16:33N 54°58' W 005°01'0 0.1
2015-Jan-20 15:33N 54°58' W 005°01'1212.3
2015-Jan-20 14:33N 54°57' W 005°23'1615.9
2015-Jan-20 13:33N 54°51' W 005°48'0 0.1
2015-Jan-20 12:30N 54°51' W 005°48'1314.2
2015-Jan-20 11:33N 54°57' W 005°28'1514.9
2015-Jan-20 10:34N 54°58' W 005°02'1 0.6
2015-Jan-20 09:33N 54°58' W 005°01'1111.5
2015-Jan-20 08:34N 54°58' W 005°21'1716.9
2015-Jan-20 07:33N 54°51' W 005°48'0 0.1
2015-Jan-20 06:34N 54°51' W 005°48'4 4.4
2015-Jan-20 05:33N 54°53' W 005°42'2120.1
2015-Jan-20 04:32N 55°01' W 005°09'6 5.9
2015-Jan-20 03:33N 54°58' W 005°01'0 0.0
2015-Jan-20 02:33N 54°58' W 005°01'6 5.1
2015-Jan-20 01:25N 55°02' W 005°09'1820.5
2015-Jan-20 00:34N 54°54' W 005°36'7 7.4
2015-Jan-19 23:33N 54°51' W 005°48'0 0.0
2015-Jan-19 22:33N 54°51' W 005°48'4 3.9
2015-Jan-19 21:33N 54°53' W 005°42'2416.5
2015-Jan-19 20:08N 54°59' W 005°02'1 2.5
2015-Jan-19 19:33N 54°58' W 005°01'0 0.1
2015-Jan-19 18:32N 54°58' W 005°01'1312.9
2015-Jan-19 17:33N 54°57' W 005°23'1615.2
2015-Jan-19 16:32N 54°51' W 005°48'0 0.0
2015-Jan-19 15:33N 54°51' W 005°48'1413.9
2015-Jan-19 14:33N 54°58' W 005°27'1514.1
2015-Jan-19 13:30N 54°58' W 005°01'0 0.0
2015-Jan-19 12:29N 54°58' W 005°01'1212.7
2015-Jan-19 11:33N 54°58' W 005°21'1716.9
2015-Jan-19 10:34N 54°51' W 005°48'0 0.1
2015-Jan-19 09:33N 54°51' W 005°48'1211.7
2015-Jan-19 08:33N 54°56' W 005°30'1615.7
2015-Jan-19 07:33N 54°59' W 005°03'1 1.4
2015-Jan-19 06:33N 54°58' W 005°01'5 4.9
2015-Jan-19 05:33N 55°02' W 005°06'1717.4
2015-Jan-19 04:33N 54°55' W 005°34'9 8.8
2015-Jan-19 03:33N 54°51' W 005°48'0 0.0
2015-Jan-19 02:33N 54°51' W 005°48'0 0.0
2015-Jan-19 01:33N 54°51' W 005°48'4 3.6
2015-Jan-19 00:34N 54°53' W 005°43'1918.6
2015-Jan-18 23:33N 55°01' W 005°14'8 8.0
2015-Jan-18 22:32N 54°58' W 005°01'5 5.6
2015-Jan-18 21:33N 55°01' W 005°08'1717.1
2015-Jan-18 20:33N 54°54' W 005°35'8 8.1
2015-Jan-18 19:33N 54°51' W 005°48'0 0.0
2015-Jan-18 18:33N 54°51' W 005°48'1515.0
2015-Jan-18 17:34N 54°58' W 005°25'1413.7
2015-Jan-18 16:33N 54°58' W 005°01'0 0.0
2015-Jan-18 15:33N 54°58' W 005°01'5 5.4
2015-Jan-18 14:34N 55°02' W 005°08'2019.9
2015-Jan-18 13:33N 54°54' W 005°39'6 5.5
2015-Jan-18 12:33N 54°51' W 005°48'0 0.0
2015-Jan-18 11:33N 54°51' W 005°48'0 0.0
2015-Jan-18 10:33N 54°51' W 005°48'0 0.0
2015-Jan-18 09:33N 54°51' W 005°48'1312.7
2015-Jan-18 08:33N 54°57' W 005°29'1515.2
2015-Jan-18 07:33N 54°59' W 005°02'1 1.2
2015-Jan-18 06:34N 54°58' W 005°01'0 0.0
2015-Jan-18 05:33N 54°58' W 005°01'0 0.0
2015-Jan-18 04:33N 54°58' W 005°01'0 0.0
2015-Jan-18 03:34N 54°58' W 005°01'0 0.0
2015-Jan-18 02:33N 54°58' W 005°01'0 0.0
2015-Jan-18 01:31N 54°58' W 005°01'0 0.0
2015-Jan-18 00:30N 54°58' W 005°01'0 0.0
2015-Jan-17 23:33N 54°58' W 005°01'5 2.4
2015-Jan-17 21:26N 55°01' W 005°07'1618.2
2015-Jan-17 20:34N 54°55' W 005°32'1010.1
2015-Jan-17 19:34N 54°51' W 005°48'0 0.0
2015-Jan-17 18:34N 54°51' W 005°48'1313.4
2015-Jan-17 17:33N 54°57' W 005°27'  
Track history (hours):
 
Tides and Currents Weather Stations Pressure Air Temp Water Temp Dewpoint Dewpoint Depression Visibility Wind Speed Wind Dir Waves Ship Positions

European Causeway

Operator: P & O Irish Sea

Last reported at 2015-Jan-27 16:33 UTC. Time now 2015-Jan-27 16:55 UTC.
Position N 54°58' W 005°02'.

Length 165 m; draft 5.5 m.

Type: Passenger vessel. MMSI: 311027000.

Date/timePositionNaut miles runAvg speedWind from/ knotsBaromVisibWave heightAir tempDewpointWater temp
2015-Jan-27 16:33N 54°58' W 005°02'1 0.7
2015-Jan-27 15:24N 54°58' W 005°01'1012.0
2015-Jan-27 14:33N 54°58' W 005°19'1818.3
2015-Jan-27 13:33N 54°51' W 005°48'0 0.1
2015-Jan-27 12:32N 54°51' W 005°48'1413.9
2015-Jan-27 11:32N 54°57' W 005°26'1414.2
2015-Jan-27 10:33N 54°59' W 005°02'1 0.8
2015-Jan-27 09:28N 54°58' W 005°02'1314.0
2015-Jan-27 08:33N 54°57' W 005°24'1515.2
2015-Jan-27 07:33N 54°51' W 005°48'0 0.0
2015-Jan-27 06:33N 54°51' W 005°48'7 7.2
2015-Jan-27 05:34N 54°55' W 005°37'2018.5
2015-Jan-27 04:29N 54°59' W 005°04'2 2.5
2015-Jan-27 03:33N 54°58' W 005°01'0 0.0
2015-Jan-27 02:33N 54°58' W 005°01'6 5.6
2015-Jan-27 01:33N 55°01' W 005°08'1817.9
2015-Jan-27 00:33N 54°54' W 005°36'7 7.3
2015-Jan-26 23:33N 54°51' W 005°48'0 0.0
2015-Jan-26 22:33N 54°51' W 005°48'4 4.5
2015-Jan-26 21:34N 54°53' W 005°41'2315.8
2015-Jan-26 20:06N 54°59' W 005°02'1 2.1
2015-Jan-26 19:34N 54°58' W 005°01'0 0.3
2015-Jan-26 18:27N 54°58' W 005°01'1314.2
2015-Jan-26 17:33N 54°57' W 005°23'1514.9
2015-Jan-26 16:31N 54°51' W 005°48'0 0.0
2015-Jan-26 15:32N 54°51' W 005°48'1313.6
2015-Jan-26 14:34N 54°57' W 005°27'1514.6
2015-Jan-26 13:33N 54°58' W 005°02'0 0.1
2015-Jan-26 12:17N 54°59' W 005°02'1013.0
2015-Jan-26 11:33N 54°58' W 005°19'1817.6
2015-Jan-26 10:31N 54°51' W 005°48'0 0.2
2015-Jan-26 09:33N 54°51' W 005°48'1414.4
2015-Jan-26 08:33N 54°58' W 005°26'1413.4
2015-Jan-26 07:30N 54°58' W 005°01'0 0.0
2015-Jan-26 06:33N 54°58' W 005°01'5 5.2
2015-Jan-26 05:31N 55°02' W 005°08'1818.9
2015-Jan-26 04:32N 54°54' W 005°37'7 7.2
2015-Jan-26 03:33N 54°51' W 005°48'0 0.0
2015-Jan-26 02:33N 54°51' W 005°48'0 0.0
2015-Jan-26 01:33N 54°51' W 005°48'5 5.2
2015-Jan-26 00:33N 54°54' W 005°40'1817.7
2015-Jan-25 23:33N 55°01' W 005°13'8 7.5
2015-Jan-25 22:34N 54°58' W 005°01'6 5.7
2015-Jan-25 21:33N 55°02' W 005°07'1917.8
2015-Jan-25 20:30N 54°54' W 005°37'7 7.4
2015-Jan-25 19:33N 54°51' W 005°48'0 0.0
2015-Jan-25 18:33N 54°51' W 005°48'1414.5
2015-Jan-25 17:33N 54°58' W 005°26'1411.1
2015-Jan-25 16:16N 54°58' W 005°01'0 0.0
2015-Jan-25 15:22N 54°58' W 005°01'6 7.0
2015-Jan-25 14:33N 55°02' W 005°08'1817.6
2015-Jan-25 13:33N 54°54' W 005°36'7 7.5
2015-Jan-25 12:33N 54°51' W 005°48'0 0.0
2015-Jan-25 11:33N 54°51' W 005°48'0 0.0
2015-Jan-25 10:33N 54°51' W 005°48'0 0.0
2015-Jan-25 09:32N 54°51' W 005°48'1616.3
2015-Jan-25 08:33N 54°58' W 005°23'1312.8
2015-Jan-25 07:33N 54°58' W 005°01'0 0.0
2015-Jan-25 06:33N 54°58' W 005°01'0 0.0
2015-Jan-25 05:33N 54°58' W 005°01'0 0.0
2015-Jan-25 04:33N 54°58' W 005°01'0 0.0
2015-Jan-25 03:34N 54°58' W 005°01'0 0.0
2015-Jan-25 02:33N 54°58' W 005°01'0 0.0
2015-Jan-25 01:31N 54°58' W 005°01'0 0.0
2015-Jan-25 00:33N 54°58' W 005°01'0 0.0
2015-Jan-24 23:33N 54°58' W 005°01'5 2.4
2015-Jan-24 21:26N 55°02' W 005°06'1517.6
2015-Jan-24 20:34N 54°55' W 005°30'1111.1
2015-Jan-24 19:33N 54°51' W 005°48'0 0.0
2015-Jan-24 18:33N 54°51' W 005°48'1312.9
2015-Jan-24 17:34N 54°57' W 005°29'1514.8
2015-Jan-24 16:32N 54°59' W 005°02'1 1.4
2015-Jan-24 15:31N 54°58' W 005°01'1111.1
2015-Jan-24 14:33N 54°59' W 005°20'1817.9
2015-Jan-24 13:33N 54°51' W 005°48'0 0.4
2015-Jan-24 12:34N 54°51' W 005°48'1414.3
2015-Jan-24 11:33N 54°58' W 005°26'1413.7
2015-Jan-24 10:33N 54°58' W 005°02'1 0.6
2015-Jan-24 09:32N 54°58' W 005°01'1212.3
2015-Jan-24 08:33N 54°57' W 005°22'1616.0
2015-Jan-24 07:33N 54°51' W 005°48'0 0.0
2015-Jan-24 06:33N 54°51' W 005°48'9 8.6
2015-Jan-24 05:33N 54°55' W 005°35'1917.8
2015-Jan-24 04:31N 54°60' W 005°04'2 2.5
2015-Jan-24 03:33N 54°58' W 005°01'0 0.0
2015-Jan-24 02:34N 54°58' W 005°01'6 5.3
2015-Jan-24 01:30N 55°02' W 005°08'1718.2
2015-Jan-24 00:33N 54°54' W 005°35'8 7.9
2015-Jan-23 23:33N 54°51' W 005°48'0 0.0
2015-Jan-23 22:33N 54°51' W 005°48'6 5.7
2015-Jan-23 21:33N 54°54' W 005°39'1717.3
2015-Jan-23 20:33N 55°01' W 005°12'7 3.5
2015-Jan-23 18:33N 54°58' W 005°01'1212.2
2015-Jan-23 17:32N 54°57' W 005°23'1614.9
2015-Jan-23 16:29N 54°51' W 005°48'0 0.0
2015-Jan-23 15:33N 54°51' W 005°48'1514.7
2015-Jan-23 14:34N 54°58' W 005°26'1414.0
2015-Jan-23 13:33N 54°58' W 005°01'0 0.1
2015-Jan-23 12:32N 54°58' W 005°01'1110.8
2015-Jan-23 11:33N 54°58' W 005°19'1818.0
2015-Jan-23 10:33N 54°51' W 005°48'0 0.2
2015-Jan-23 09:33N 54°51' W 005°48'1716.7
2015-Jan-23 08:33N 54°59' W 005°22'1211.7
2015-Jan-23 07:31N 54°58' W 005°01'0 0.0
2015-Jan-23 06:33N 54°58' W 005°01'5 5.2
2015-Jan-23 05:33N 55°02' W 005°06'1918.9
2015-Jan-23 04:33N 54°54' W 005°36'7 7.3
2015-Jan-23 03:33N 54°51' W 005°48'0 0.0
2015-Jan-23 02:33N 54°51' W 005°48'6 5.6
2015-Jan-23 01:33N 54°55' W 005°42'1818.0
2015-Jan-23 00:33N 55°01' W 005°12'7 7.3
2015-Jan-22 23:33N 54°58' W 005°01'0 0.0
2015-Jan-22 22:31N 54°58' W 005°01'6 5.8
2015-Jan-22 21:30N 55°01' W 005°09'1818.4
2015-Jan-22 20:31N 54°54' W 005°37'7 6.9
2015-Jan-22 19:33N 54°51' W 005°48'0 0.0
2015-Jan-22 18:33N 54°51' W 005°48'1312.7
2015-Jan-22 17:33N 54°57' W 005°29'1515.4
2015-Jan-22 16:34N 54°58' W 005°02'1 0.8
2015-Jan-22 15:27N 54°58' W 005°01'1112.7
2015-Jan-22 14:33N 54°58' W 005°21'1717.1
2015-Jan-22 13:33N 54°51' W 005°48'0 0.1
2015-Jan-22 12:30N 54°51' W 005°48'1313.5
2015-Jan-22 11:31N 54°58' W 005°28'1515.3
2015-Jan-22 10:33N 54°58' W 005°02'1 1.0
2015-Jan-22 09:32N 54°58' W 005°01'1110.9
2015-Jan-22 08:33N 54°58' W 005°20'1817.8
2015-Jan-22 07:33N 54°51' W 005°48'0 0.1
2015-Jan-22 06:33N 54°51' W 005°48'6 6.4
2015-Jan-22 05:33N 54°54' W 005°38'2118.7
2015-Jan-22 04:27N 54°60' W 005°04'3 2.8
2015-Jan-22 03:32N 54°58' W 005°01'0 0.0
2015-Jan-22 02:29N 54°58' W 005°01'6 6.5
2015-Jan-22 01:31N 55°01' W 005°10'1717.9
2015-Jan-22 00:33N 54°54' W 005°37'7 6.8
2015-Jan-21 23:33N 54°51' W 005°48'0 0.0
2015-Jan-21 22:50N 54°51' W 005°48'0 0.0
2015-Jan-21 22:46N 54°51' W 005°48'0 0.0
2015-Jan-21 22:33N 54°51' W 005°48'4 4.3
2015-Jan-21 21:33N 54°53' W 005°42'1918.7
2015-Jan-21 20:33N 55°02' W 005°13'8 7.0
2015-Jan-21 19:25N 54°58' W 005°01'0 0.0
2015-Jan-21 18:33N 54°58' W 005°01'1110.9
2015-Jan-21 17:33N 54°58' W 005°20'1717.5
2015-Jan-21 16:34N 54°51' W 005°48'0 0.1
2015-Jan-21 15:33N 54°51' W 005°48'1312.8
2015-Jan-21 14:33N 54°57' W 005°29'1515.3
2015-Jan-21 13:33N 54°58' W 005°02'1 0.8
2015-Jan-21 12:33N 54°58' W 005°01'1110.7
2015-Jan-21 11:34N 54°59' W 005°19'1817.9
2015-Jan-21 10:33N 54°51' W 005°48'0 0.3
2015-Jan-21 09:33N 54°51' W 005°48'1515.2
2015-Jan-21 08:33N 54°58' W 005°24'1313.4
2015-Jan-21 07:33N 54°58' W 005°01'0 0.0
2015-Jan-21 06:27N 54°58' W 005°01'5 5.6
2015-Jan-21 05:31N 55°02' W 005°07'1717.6
2015-Jan-21 04:33N 54°55' W 005°34'9 8.6
2015-Jan-21 03:33N 54°51' W 005°48'0 0.0
2015-Jan-21 02:33N 54°51' W 005°48'5 4.5
2015-Jan-21 01:34N 54°53' W 005°41'1918.6
2015-Jan-21 00:34N 55°01' W 005°12'7 7.2
2015-Jan-20 23:33N 54°58' W 005°01'6 2.9
2015-Jan-20 21:33N 55°01' W 005°09'1717.5
2015-Jan-20 20:34N 54°54' W 005°36'7 7.0
2015-Jan-20 19:30N 54°51' W 005°48'0 0.0
2015-Jan-20 18:33N 54°51' W 005°48'1616.3
2015-Jan-20 17:33N 54°59' W 005°23'1312.7
2015-Jan-20 16:33N 54°58' W 005°01'0 0.1
2015-Jan-20 15:33N 54°58' W 005°01'1212.3
2015-Jan-20 14:33N 54°57' W 005°23'1615.9
2015-Jan-20 13:33N 54°51' W 005°48'0 0.1
2015-Jan-20 12:30N 54°51' W 005°48'1314.2
2015-Jan-20 11:33N 54°57' W 005°28'1514.9
2015-Jan-20 10:34N 54°58' W 005°02'1 0.6
2015-Jan-20 09:33N 54°58' W 005°01'1111.5
2015-Jan-20 08:34N 54°58' W 005°21'1716.9
2015-Jan-20 07:33N 54°51' W 005°48'0 0.1
2015-Jan-20 06:34N 54°51' W 005°48'4 4.4
2015-Jan-20 05:33N 54°53' W 005°42'2120.1
2015-Jan-20 04:32N 55°01' W 005°09'6 5.9
2015-Jan-20 03:33N 54°58' W 005°01'0 0.0
2015-Jan-20 02:33N 54°58' W 005°01'6 5.1
2015-Jan-20 01:25N 55°02' W 005°09'1820.5
2015-Jan-20 00:34N 54°54' W 005°36'7 7.4
2015-Jan-19 23:33N 54°51' W 005°48'0 0.0
2015-Jan-19 22:33N 54°51' W 005°48'4 3.9
2015-Jan-19 21:33N 54°53' W 005°42'2416.5
2015-Jan-19 20:08N 54°59' W 005°02'1 2.5
2015-Jan-19 19:33N 54°58' W 005°01'0 0.1
2015-Jan-19 18:32N 54°58' W 005°01'1312.9
2015-Jan-19 17:33N 54°57' W 005°23'1615.2
2015-Jan-19 16:32N 54°51' W 005°48'0 0.0
2015-Jan-19 15:33N 54°51' W 005°48'1413.9
2015-Jan-19 14:33N 54°58' W 005°27'1514.1
2015-Jan-19 13:30N 54°58' W 005°01'0 0.0
2015-Jan-19 12:29N 54°58' W 005°01'1212.7
2015-Jan-19 11:33N 54°58' W 005°21'1716.9
2015-Jan-19 10:34N 54°51' W 005°48'0 0.1
2015-Jan-19 09:33N 54°51' W 005°48'1211.7
2015-Jan-19 08:33N 54°56' W 005°30'1615.7
2015-Jan-19 07:33N 54°59' W 005°03'1 1.4
2015-Jan-19 06:33N 54°58' W 005°01'5 4.9
2015-Jan-19 05:33N 55°02' W 005°06'1717.4
2015-Jan-19 04:33N 54°55' W 005°34'9 8.8
2015-Jan-19 03:33N 54°51' W 005°48'0 0.0
2015-Jan-19 02:33N 54°51' W 005°48'0 0.0
2015-Jan-19 01:33N 54°51' W 005°48'4 3.6
2015-Jan-19 00:34N 54°53' W 005°43'1918.6
2015-Jan-18 23:33N 55°01' W 005°14'8 8.0
2015-Jan-18 22:32N 54°58' W 005°01'5 5.6
2015-Jan-18 21:33N 55°01' W 005°08'1717.1
2015-Jan-18 20:33N 54°54' W 005°35'8 8.1
2015-Jan-18 19:33N 54°51' W 005°48'0 0.0
2015-Jan-18 18:33N 54°51' W 005°48'1515.0
2015-Jan-18 17:34N 54°58' W 005°25'1413.7
2015-Jan-18 16:33N 54°58' W 005°01'0 0.0
2015-Jan-18 15:33N 54°58' W 005°01'5 5.4
2015-Jan-18 14:34N 55°02' W 005°08'2019.9
2015-Jan-18 13:33N 54°54' W 005°39'6 5.5
2015-Jan-18 12:33N 54°51' W 005°48'0 0.0
2015-Jan-18 11:33N 54°51' W 005°48'0 0.0
2015-Jan-18 10:33N 54°51' W 005°48'0 0.0
2015-Jan-18 09:33N 54°51' W 005°48'1312.7
2015-Jan-18 08:33N 54°57' W 005°29'1515.2
2015-Jan-18 07:33N 54°59' W 005°02'1 1.2
2015-Jan-18 06:34N 54°58' W 005°01'0 0.0
2015-Jan-18 05:33N 54°58' W 005°01'0 0.0
2015-Jan-18 04:33N 54°58' W 005°01'0 0.0
2015-Jan-18 03:34N 54°58' W 005°01'0 0.0
2015-Jan-18 02:33N 54°58' W 005°01'0 0.0
2015-Jan-18 01:31N 54°58' W 005°01'0 0.0
2015-Jan-18 00:30N 54°58' W 005°01'0 0.0
2015-Jan-17 23:33N 54°58' W 005°01'5 2.4
2015-Jan-17 21:26N 55°01' W 005°07'1618.2
2015-Jan-17 20:34N 54°55' W 005°32'1010.1
2015-Jan-17 19:34N 54°51' W 005°48'0 0.0
2015-Jan-17 18:34N 54°51' W 005°48'1313.4
2015-Jan-17 17:33N 54°57' W 005°27'  

Dump ship's entire track history